createdAt,value
2022-08-09T00:00:20.300Z,100.00
2022-08-09T00:02:51.690Z,100.00
2022-08-09T00:06:18.996Z,100.00
2022-08-09T00:08:32.576Z,100.00
2022-08-09T00:11:05.631Z,100.00
2022-08-09T00:13:38.425Z,100.00
2022-08-09T00:16:12.771Z,100.00
2022-08-09T00:18:43.263Z,100.00
2022-08-09T00:21:13.534Z,100.00
2022-08-09T00:23:55.258Z,100.00
2022-08-09T00:26:33.067Z,100.00
2022-08-09T00:29:12.465Z,100.00
2022-08-09T00:31:58.362Z,100.00
2022-08-09T00:34:32.670Z,100.00
2022-08-09T00:37:04.069Z,100.00
2022-08-09T00:40:09.488Z,100.00
2022-08-09T00:44:10.643Z,100.00
2022-08-09T00:45:20.207Z,100.00
2022-08-09T00:47:51.122Z,100.00
2022-08-09T00:50:21.458Z,100.00
2022-08-09T00:52:54.230Z,100.00
2022-08-09T00:56:03.020Z,100.00
2022-08-09T00:58:22.220Z,100.00
2022-08-09T01:00:59.149Z,100.00
2022-08-09T01:03:40.860Z,100.00
2022-08-09T01:06:35.091Z,100.00
2022-08-09T01:09:15.540Z,100.00
2022-08-09T01:12:00.481Z,100.00
2022-08-09T01:14:36.089Z,100.00
2022-08-09T01:17:11.143Z,100.00
2022-08-09T01:19:57.041Z,100.00
2022-08-09T01:22:54.862Z,100.00
2022-08-09T01:25:41.727Z,100.00
2022-08-09T01:28:17.548Z,100.00
2022-08-09T01:30:52.308Z,100.00
2022-08-09T01:33:26.862Z,100.00
2022-08-09T01:36:00.867Z,100.00
2022-08-09T01:38:34.640Z,100.00
2022-08-09T01:41:10.817Z,100.00
2022-08-09T01:43:52.580Z,100.00
2022-08-09T01:46:26.816Z,100.00
2022-08-09T01:49:10.580Z,100.00
2022-08-09T01:51:53.948Z,100.00
2022-08-09T01:54:28.259Z,100.00
2022-08-09T01:57:08.291Z,100.00
2022-08-09T01:59:52.043Z,100.00
2022-08-09T02:02:30.824Z,100.00
2022-08-09T02:05:11.761Z,100.00
2022-08-09T02:08:35.832Z,100.00
2022-08-09T02:10:43.270Z,100.00
2022-08-09T02:13:26.196Z,100.00
2022-08-09T02:16:14.323Z,100.00
2022-08-09T02:18:47.863Z,100.00
2022-08-09T02:21:24.078Z,100.00
2022-08-09T02:24:01.941Z,100.00
2022-08-09T02:26:37.389Z,100.00
2022-08-09T02:29:16.709Z,100.00
2022-08-09T02:31:52.446Z,100.00
2022-08-09T02:34:40.631Z,100.00
2022-08-09T02:37:19.970Z,100.00
2022-08-09T02:40:01.802Z,100.00
2022-08-09T02:42:36.544Z,100.00
2022-08-09T02:45:10.626Z,100.00
2022-08-09T02:47:57.377Z,100.00
2022-08-09T02:50:34.117Z,100.00
2022-08-09T02:53:08.010Z,100.00
2022-08-09T02:55:57.335Z,100.00
2022-08-09T02:58:35.913Z,100.00
2022-08-09T03:01:10.827Z,100.00
2022-08-09T03:04:16.738Z,100.00
2022-08-09T03:06:38.314Z,100.00
2022-08-09T03:09:12.072Z,100.00
2022-08-09T03:12:10.389Z,100.00
2022-08-09T03:14:33.879Z,100.00
2022-08-09T03:17:07.564Z,100.00
2022-08-09T03:19:59.481Z,100.00
2022-08-09T03:22:41.971Z,100.00
2022-08-09T03:25:26.517Z,100.00
2022-08-09T03:28:11.352Z,100.00
2022-08-09T03:30:43.501Z,100.00
2022-08-09T03:33:18.836Z,100.00
2022-08-09T03:36:12.343Z,100.00
2022-08-09T03:38:46.088Z,100.00
2022-08-09T03:41:18.260Z,100.00
2022-08-09T03:44:03.831Z,100.00
2022-08-09T03:46:40.131Z,100.00
2022-08-09T03:49:11.923Z,100.00
2022-08-09T03:51:58.726Z,100.00
2022-08-09T03:54:34.590Z,100.00
2022-08-09T03:57:12.447Z,100.00
2022-08-09T03:59:53.299Z,100.00
2022-08-09T04:02:28.898Z,100.00
2022-08-09T04:05:06.290Z,100.00
2022-08-09T04:07:56.969Z,100.00
2022-08-09T04:10:30.374Z,100.00
2022-08-09T04:13:11.584Z,100.00
2022-08-09T04:16:20.632Z,100.00
2022-08-09T04:18:34.928Z,100.00
2022-08-09T04:21:05.918Z,100.00
2022-08-09T04:23:38.972Z,100.00
2022-08-09T04:26:09.932Z,100.00
2022-08-09T04:28:42.441Z,100.00
2022-08-09T04:31:16.981Z,100.00
2022-08-09T04:33:52.731Z,100.00
2022-08-09T04:36:28.607Z,100.00
2022-08-09T04:39:02.861Z,100.00
2022-08-09T04:41:43.536Z,100.00
2022-08-09T04:44:14.674Z,100.00
2022-08-09T04:46:58.123Z,100.00
2022-08-09T04:49:53.000Z,100.00
2022-08-09T04:52:26.521Z,100.00
2022-08-09T04:55:03.979Z,100.00
2022-08-09T04:57:59.258Z,100.00
2022-08-09T05:00:31.782Z,100.00
2022-08-09T05:03:12.903Z,100.00
2022-08-09T05:06:04.629Z,100.00
2022-08-09T05:08:38.355Z,100.00
2022-08-09T05:11:11.909Z,100.00
2022-08-09T05:13:43.569Z,100.00
2022-08-09T05:16:14.911Z,100.00
2022-08-09T05:18:58.110Z,100.00
2022-08-09T05:21:36.607Z,100.00
2022-08-09T05:24:17.746Z,100.00
2022-08-09T05:26:50.509Z,100.00
2022-08-09T05:29:24.194Z,100.00
2022-08-09T05:32:00.313Z,100.00
2022-08-09T05:34:32.855Z,100.00
2022-08-09T05:37:06.212Z,100.00
2022-08-09T05:39:42.566Z,100.00
2022-08-09T05:42:21.923Z,100.00
2022-08-09T05:44:58.721Z,100.00
2022-08-09T05:47:33.230Z,100.00
2022-08-09T05:50:25.496Z,100.00
2022-08-09T05:52:54.972Z,100.00
2022-08-09T05:55:25.710Z,100.00
2022-08-09T05:57:58.749Z,100.00
2022-08-09T06:00:30.387Z,100.00
2022-08-09T06:03:01.329Z,100.00
2022-08-09T06:05:50.145Z,100.00
2022-08-09T06:08:24.392Z,100.00
2022-08-09T06:10:56.134Z,100.00
2022-08-09T06:13:33.874Z,100.00
2022-08-09T06:16:05.390Z,100.00
2022-08-09T06:18:36.502Z,100.00
2022-08-09T06:21:08.334Z,100.00
2022-08-09T06:23:57.387Z,100.00
2022-08-09T06:26:31.580Z,100.00
2022-08-09T06:29:05.356Z,100.00
2022-08-09T06:31:39.778Z,100.00
2022-08-09T06:34:30.774Z,100.00
2022-08-09T06:37:01.452Z,100.00
2022-08-09T06:39:48.470Z,100.00
2022-08-09T06:42:28.542Z,100.00
2022-08-09T06:45:04.583Z,100.00
2022-08-09T06:48:00.596Z,100.00
2022-08-09T06:50:31.906Z,100.00
2022-08-09T06:53:04.968Z,100.00
2022-08-09T06:55:35.822Z,100.00
2022-08-09T06:58:07.920Z,100.00
2022-08-09T07:01:01.628Z,100.00
2022-08-09T07:03:39.584Z,100.00
2022-08-09T07:06:25.518Z,100.00
2022-08-09T07:08:58.222Z,100.00
2022-08-09T07:11:34.184Z,100.00
2022-08-09T07:14:26.357Z,100.00
2022-08-09T07:16:59.844Z,100.00
2022-08-09T07:19:29.981Z,100.00
2022-08-09T07:22:00.179Z,100.00
2022-08-09T07:24:40.575Z,100.00
2022-08-09T07:27:26.252Z,100.00
2022-08-09T07:30:03.275Z,100.00
2022-08-09T07:32:40.354Z,100.00
2022-08-09T07:35:15.611Z,100.00
2022-08-09T07:37:54.129Z,100.00
2022-08-09T07:40:54.206Z,100.00
2022-08-09T07:43:29.014Z,100.00
2022-08-09T07:46:02.065Z,100.00
2022-08-09T07:48:39.231Z,100.00
2022-08-09T07:52:04.772Z,99.51
2022-08-09T07:54:08.661Z,97.67
2022-08-09T07:56:48.874Z,96.56
2022-08-09T07:59:34.267Z,97.04
2022-08-09T08:02:19.105Z,98.12
2022-08-09T08:04:53.754Z,97.52
2022-08-09T08:09:00.669Z,97.40
2022-08-09T08:10:20.426Z,95.77
2022-08-09T08:12:57.607Z,93.65
2022-08-09T08:15:29.229Z,91.42
2022-08-09T08:18:05.859Z,89.93
2022-08-09T08:20:38.978Z,93.82
2022-08-09T08:23:17.173Z,90.89
2022-08-09T08:25:50.148Z,90.40
2022-08-09T08:28:37.672Z,93.12
2022-08-09T08:31:14.739Z,91.86
2022-08-09T08:33:52.131Z,88.83
2022-08-09T08:36:30.753Z,88.80
2022-08-09T08:39:03.577Z,87.08
2022-08-09T08:41:51.523Z,86.57
2022-08-09T08:44:28.840Z,83.81
2022-08-09T08:47:04.980Z,82.08
2022-08-09T08:49:48.467Z,80.19
2022-08-09T08:55:23.404Z,76.79
2022-08-09T08:57:56.349Z,79.86
2022-08-09T09:00:35.036Z,79.13
2022-08-09T09:03:12.022Z,78.10
2022-08-09T09:06:00.947Z,78.04
2022-08-09T09:08:42.483Z,79.26
2022-08-09T09:11:17.655Z,81.29
2022-08-09T09:13:57.038Z,78.88
2022-08-09T09:16:33.933Z,83.67
2022-08-09T09:19:40.216Z,75.50
2022-08-09T09:22:11.694Z,76.51
2022-08-09T09:24:47.234Z,79.43
2022-08-09T09:28:05.395Z,76.63
2022-08-09T09:30:31.587Z,75.96
2022-08-09T09:33:15.366Z,74.42
2022-08-09T09:36:01.820Z,74.25
2022-08-09T09:38:47.753Z,74.30
2022-08-09T09:41:49.122Z,74.28
2022-08-09T09:44:28.130Z,74.12
2022-08-09T09:47:10.058Z,74.86
2022-08-09T09:50:07.229Z,73.19
2022-08-09T09:52:37.203Z,78.42
2022-08-09T09:55:23.858Z,72.55
2022-08-09T09:58:19.103Z,72.49
2022-08-09T10:00:55.671Z,74.13
2022-08-09T10:03:57.289Z,72.70
2022-08-09T10:06:32.158Z,73.15
2022-08-09T10:09:21.545Z,69.53
2022-08-09T10:12:14.211Z,68.85
2022-08-09T10:14:56.316Z,70.31
2022-08-09T10:17:51.050Z,74.16
2022-08-09T10:20:32.404Z,74.39
2022-08-09T10:23:20.453Z,67.96
2022-08-09T10:26:08.126Z,71.41
2022-08-09T10:28:48.756Z,68.82
2022-08-09T10:34:33.810Z,65.79
2022-08-09T10:37:09.831Z,65.75
2022-08-09T10:39:49.292Z,65.39
2022-08-09T10:42:20.427Z,68.83
2022-08-09T10:45:02.418Z,68.50
2022-08-09T10:48:14.446Z,65.85
2022-08-09T10:51:02.131Z,63.26
2022-08-09T10:53:54.334Z,64.77
2022-08-09T10:56:27.655Z,64.62
2022-08-09T10:59:00.535Z,64.58
2022-08-09T11:03:16.203Z,61.40
2022-08-09T11:04:55.506Z,60.83
2022-08-09T11:07:58.517Z,64.13
2022-08-09T11:11:00.604Z,62.86
2022-08-09T11:13:51.477Z,64.15
2022-08-09T11:16:41.117Z,62.40
2022-08-09T11:19:12.385Z,64.18
2022-08-09T11:22:10.191Z,67.25
2022-08-09T11:25:14.684Z,66.15
2022-08-09T11:28:05.018Z,62.55
2022-08-09T11:30:47.956Z,62.11
2022-08-09T11:33:41.526Z,60.82
2022-08-09T11:36:35.296Z,62.38
2022-08-09T11:39:09.071Z,63.02
2022-08-09T11:41:42.186Z,57.18
2022-08-09T11:44:15.395Z,57.87
2022-08-09T11:46:59.863Z,57.47
2022-08-09T11:50:56.582Z,56.46
2022-08-09T11:54:00.603Z,55.72
2022-08-09T11:56:41.298Z,59.26
2022-08-09T11:59:30.291Z,58.60
2022-08-09T12:02:34.354Z,54.50
2022-08-09T12:04:59.104Z,57.78
2022-08-09T12:07:41.353Z,57.59
2022-08-09T12:10:31.795Z,55.61
2022-08-09T12:14:09.856Z,58.98
2022-08-09T12:16:03.175Z,57.29
2022-08-09T12:18:33.854Z,57.27
2022-08-09T12:21:26.359Z,57.28
2022-08-09T12:24:09.016Z,57.00
2022-08-09T12:28:57.554Z,57.29
2022-08-09T12:29:52.359Z,55.65
2022-08-09T12:32:32.591Z,54.76
2022-08-09T12:35:12.291Z,56.13
2022-08-09T12:37:51.621Z,55.41
2022-08-09T12:40:27.325Z,56.45
2022-08-09T12:42:59.625Z,56.65
2022-08-09T12:45:39.573Z,56.71
2022-08-09T12:48:30.867Z,56.06
2022-08-09T12:51:04.647Z,55.10
2022-08-09T12:53:40.576Z,54.58
2022-08-09T12:56:36.921Z,55.48
2022-08-09T12:59:57.388Z,53.34
2022-08-09T13:02:21.617Z,55.36
2022-08-09T13:05:06.563Z,54.29
2022-08-09T13:07:51.260Z,53.97
2022-08-09T13:10:34.880Z,54.43
2022-08-09T13:13:10.943Z,56.40
2022-08-09T13:15:56.246Z,53.51
2022-08-09T13:18:31.752Z,55.31
2022-08-09T13:21:20.480Z,54.55
2022-08-09T13:24:15.611Z,52.12
2022-08-09T13:26:49.869Z,51.54
2022-08-09T13:29:42.106Z,51.46
2022-08-09T13:32:25.509Z,51.26
2022-08-09T13:35:01.755Z,53.88
2022-08-09T13:37:51.297Z,53.74
2022-08-09T13:41:54.351Z,52.34
2022-08-09T13:43:15.961Z,54.13
2022-08-09T13:46:44.705Z,51.40
2022-08-09T13:48:36.850Z,52.97
2022-08-09T13:51:10.635Z,50.14
2022-08-09T13:53:43.687Z,53.53
2022-08-09T13:56:15.225Z,53.48
2022-08-09T13:58:48.412Z,54.86
2022-08-09T14:02:00.646Z,54.16
2022-08-09T14:04:11.221Z,53.58
2022-08-09T14:06:46.649Z,53.56
2022-08-09T14:09:17.748Z,56.75
2022-08-09T14:11:48.206Z,52.49
2022-08-09T14:14:26.819Z,55.18
2022-08-09T14:16:58.938Z,54.07
2022-08-09T14:19:33.160Z,51.07
2022-08-09T14:22:07.439Z,49.85
2022-08-09T14:24:53.725Z,52.92
2022-08-09T14:27:24.720Z,55.91
2022-08-09T14:30:35.477Z,54.17
2022-08-09T14:32:47.426Z,52.95
2022-08-09T14:35:18.081Z,54.58
2022-08-09T14:38:02.631Z,50.16
2022-08-09T14:41:01.918Z,50.68
2022-08-09T14:43:25.692Z,50.50
2022-08-09T14:46:54.858Z,51.69
2022-08-09T14:49:10.488Z,52.11
2022-08-09T14:51:42.386Z,51.56
2022-08-09T14:54:16.929Z,50.70
2022-08-09T14:56:53.721Z,50.17
2022-08-09T14:59:29.090Z,50.76
2022-08-09T15:02:00.817Z,50.58
2022-08-09T15:04:32.812Z,50.42
2022-08-09T15:07:03.364Z,50.15
2022-08-09T15:10:07.503Z,51.84
2022-08-09T15:12:26.764Z,52.18
2022-08-09T15:14:57.886Z,52.94
2022-08-09T15:17:28.805Z,53.73
2022-08-09T15:20:02.643Z,56.43
2022-08-09T15:22:33.999Z,54.41
2022-08-09T15:25:33.583Z,55.21
2022-08-09T15:28:27.740Z,56.04
2022-08-09T15:31:09.976Z,56.29
2022-08-09T15:34:18.305Z,56.66
2022-08-09T15:36:40.647Z,56.59
2022-08-09T15:39:20.691Z,57.36
2022-08-09T15:41:53.805Z,54.47
2022-08-09T15:44:25.678Z,57.44
2022-08-09T15:46:57.762Z,55.24
2022-08-09T15:49:30.247Z,55.23
2022-08-09T15:52:05.604Z,55.59
2022-08-09T15:54:46.111Z,56.35
2022-08-09T15:57:35.873Z,57.67
2022-08-09T16:00:25.627Z,55.79
2022-08-09T16:02:58.898Z,57.70
2022-08-09T16:05:47.250Z,54.88
2022-08-09T16:08:30.726Z,58.21
2022-08-09T16:11:08.484Z,57.32
2022-08-09T16:14:02.733Z,58.02
2022-08-09T16:16:36.948Z,59.08
2022-08-09T16:19:13.452Z,57.76
2022-08-09T16:21:53.825Z,59.66
2022-08-09T16:24:32.777Z,59.17
2022-08-09T16:27:05.091Z,59.34
2022-08-09T16:29:50.500Z,60.36
2022-08-09T16:32:49.421Z,60.74
2022-08-09T16:35:53.113Z,59.73
2022-08-09T16:38:14.667Z,60.79
2022-08-09T16:40:48.584Z,60.29
2022-08-09T16:43:21.038Z,60.50
2022-08-09T16:45:54.739Z,61.38
2022-08-09T16:48:39.727Z,61.96
2022-08-09T16:51:20.607Z,61.69
2022-08-09T16:54:22.481Z,61.79
2022-08-09T16:56:49.201Z,62.60
2022-08-09T16:59:19.941Z,62.03
2022-08-09T17:01:53.485Z,62.73
2022-08-09T17:04:25.936Z,61.85
2022-08-09T17:08:43.877Z,62.47
2022-08-09T17:09:49.333Z,61.16
2022-08-09T17:12:21.119Z,62.36
2022-08-09T17:14:57.158Z,62.14
2022-08-09T17:17:50.686Z,63.00
2022-08-09T17:20:35.152Z,62.85
2022-08-09T17:23:10.489Z,64.44
2022-08-09T17:25:45.585Z,63.45
2022-08-09T17:28:23.562Z,65.67
2022-08-09T17:30:53.953Z,65.34
2022-08-09T17:33:27.810Z,65.38
2022-08-09T17:36:09.098Z,66.33
2022-08-09T17:38:57.789Z,66.57
2022-08-09T17:41:38.664Z,66.47
2022-08-09T17:44:42.291Z,66.10
2022-08-09T17:47:00.645Z,66.31
2022-08-09T17:49:37.141Z,66.79
2022-08-09T17:52:22.030Z,66.38
2022-08-09T17:54:53.891Z,68.63
2022-08-09T17:58:03.037Z,67.94
2022-08-09T18:00:15.898Z,68.01
2022-08-09T18:02:50.382Z,68.47
2022-08-09T18:05:43.703Z,68.79
2022-08-09T18:08:14.582Z,68.88
2022-08-09T18:11:01.053Z,67.53
2022-08-09T18:13:43.500Z,66.67
2022-08-09T18:16:30.474Z,66.11
2022-08-09T18:19:04.205Z,67.30
2022-08-09T18:21:55.363Z,66.18
2022-08-09T18:24:27.533Z,66.72
2022-08-09T18:27:01.106Z,67.00
2022-08-09T18:30:35.405Z,67.27
2022-08-09T18:32:22.451Z,66.67
2022-08-09T18:34:56.005Z,67.97
2022-08-09T18:37:48.830Z,68.28
2022-08-09T18:40:26.835Z,69.41
2022-08-09T18:42:57.527Z,68.83
2022-08-09T18:46:47.213Z,68.78
2022-08-09T18:48:19.038Z,71.71
2022-08-09T18:50:50.469Z,71.49
2022-08-09T18:53:23.458Z,69.84
2022-08-09T18:55:56.321Z,69.96
2022-08-09T18:58:35.385Z,69.73
2022-08-09T19:01:10.328Z,69.54
2022-08-09T19:04:01.809Z,71.79
2022-08-09T19:06:31.022Z,73.77
2022-08-09T19:09:04.551Z,74.30
2022-08-09T19:11:37.389Z,73.80
2022-08-09T19:14:08.606Z,73.14
2022-08-09T19:16:38.792Z,72.70
2022-08-09T19:19:25.334Z,72.11
2022-08-09T19:22:05.154Z,71.72
2022-08-09T19:25:11.557Z,70.53
2022-08-09T19:27:30.941Z,70.16
2022-08-09T19:30:24.769Z,71.57
2022-08-09T19:32:53.260Z,72.12
2022-08-09T19:35:26.113Z,72.90
2022-08-09T19:37:57.722Z,74.06
2022-08-09T19:40:33.103Z,74.91
2022-08-09T19:43:10.008Z,75.17
2022-08-09T19:45:42.237Z,75.96
2022-08-09T19:48:12.773Z,76.40
2022-08-09T19:50:49.194Z,76.19
2022-08-09T19:53:22.024Z,76.19
2022-08-09T19:56:03.502Z,76.19
2022-08-09T19:58:38.171Z,71.33
2022-08-09T20:01:09.096Z,70.29
2022-08-09T20:04:08.158Z,70.29
2022-08-09T20:06:32.655Z,70.07
2022-08-09T20:09:03.081Z,69.67
2022-08-09T20:11:45.294Z,69.27
2022-08-09T20:14:21.874Z,70.72
2022-08-09T20:16:54.184Z,70.82
2022-08-09T20:19:49.236Z,70.15
2022-08-09T20:22:15.581Z,71.43
2022-08-09T20:24:53.761Z,71.81
2022-08-09T20:27:29.243Z,72.36
2022-08-09T20:30:01.422Z,72.62
2022-08-09T20:32:33.804Z,73.73
2022-08-09T20:35:05.665Z,72.70
2022-08-09T20:38:23.843Z,73.04
2022-08-09T20:40:28.369Z,73.33
2022-08-09T20:43:19.236Z,72.15
2022-08-09T20:46:00.752Z,67.92
2022-08-09T20:48:45.179Z,65.43
2022-08-09T20:51:19.595Z,64.30
2022-08-09T20:53:50.609Z,62.91
2022-08-09T20:56:26.210Z,62.40
2022-08-09T20:58:59.427Z,61.84
2022-08-09T21:01:50.407Z,62.76
2022-08-09T21:05:50.799Z,61.18
2022-08-09T21:07:14.187Z,61.39
2022-08-09T21:09:56.914Z,62.01
2022-08-09T21:15:30.398Z,62.64
2022-08-09T21:18:22.980Z,62.62
2022-08-09T21:20:56.682Z,57.86
2022-08-09T21:23:47.591Z,57.52
2022-08-09T21:26:18.008Z,57.05
2022-08-09T21:28:55.869Z,57.17
2022-08-09T21:31:48.912Z,54.77
2022-08-09T21:34:29.244Z,54.70
2022-08-09T21:37:00.179Z,55.51
2022-08-09T21:39:42.420Z,55.11
2022-08-09T21:42:14.726Z,54.09
2022-08-09T21:44:45.214Z,54.25
2022-08-09T21:47:18.538Z,53.72
2022-08-09T21:49:50.944Z,53.56
2022-08-09T21:52:23.441Z,53.69
2022-08-09T21:54:59.572Z,54.44
2022-08-09T21:57:39.190Z,54.06
2022-08-09T22:00:32.476Z,53.80
2022-08-09T22:03:19.319Z,54.78
2022-08-09T22:05:57.874Z,54.45
2022-08-09T22:08:30.266Z,54.19
2022-08-09T22:12:09.363Z,54.20
2022-08-09T22:13:50.904Z,54.92
2022-08-09T22:16:21.804Z,54.23
2022-08-09T22:18:56.898Z,54.43
2022-08-09T22:21:49.766Z,55.04
2022-08-09T22:24:24.078Z,55.10
2022-08-09T22:26:55.240Z,55.73
2022-08-09T22:29:34.485Z,55.58
2022-08-09T22:32:29.709Z,55.72
2022-08-09T22:35:06.775Z,56.63
2022-08-09T22:38:06.638Z,56.79
2022-08-09T22:40:38.171Z,56.72
2022-08-09T22:43:16.185Z,57.74
2022-08-09T22:48:16.726Z,57.72
2022-08-09T22:48:50.707Z,57.51
2022-08-09T22:51:26.108Z,57.29
2022-08-09T22:54:02.670Z,58.58
2022-08-09T22:56:34.733Z,58.27
2022-08-09T22:59:56.857Z,57.94
2022-08-09T23:01:55.906Z,57.99
2022-08-09T23:04:26.408Z,58.87
2022-08-09T23:07:17.877Z,59.33
2022-08-09T23:10:08.784Z,59.39
2022-08-09T23:12:38.979Z,59.00
2022-08-09T23:15:14.688Z,60.23
2022-08-09T23:17:45.127Z,60.16
2022-08-09T23:20:15.250Z,60.36
2022-08-09T23:22:48.586Z,60.44
2022-08-09T23:25:18.906Z,60.54
2022-08-09T23:28:14.097Z,61.71
2022-08-09T23:30:40.731Z,61.21
2022-08-09T23:33:21.820Z,61.87
2022-08-09T23:36:05.925Z,61.85
2022-08-09T23:38:48.166Z,61.45
2022-08-09T23:41:28.069Z,62.55
2022-08-09T23:43:59.851Z,62.02
2022-08-09T23:46:30.678Z,62.37
2022-08-09T23:49:02.012Z,62.31
2022-08-09T23:51:32.681Z,62.56
2022-08-09T23:54:05.418Z,63.96
2022-08-09T23:56:53.520Z,63.05
2022-08-09T23:59:26.055Z,62.75
